Adelaide V — FAA4903 — position and weather

sailwx.info

Track history (hours):
 
Tides and Currents Weather Stations Pressure Air Temp Water Temp Dewpoint Dewpoint Depression Visibility Wind Speed Wind Dir Waves Ship Positions

Adelaide V

Last reported at 2017-Sep-19 13:33 UTC. Time now 2017-Sep-19 20:29 UTC.
Position N 47°39' W 003°12'.

Length 12 m.

Type: Sailing vessel. MMSI: 227127750.

Date/timePositionNaut miles runAvg speedWind from/ knotsBaromVisibWave heightAir tempDewpointWater temp
2017-Sep-19 13:33N 47°39' W 003°12'0 0.1
2017-Sep-19 13:30N 47°39' W 003°12'1 1.9
2017-Sep-19 13:00N 47°39' W 003°13'2 3.5
2017-Sep-19 12:30N 47°38' W 003°15'2 3.9
2017-Sep-19 12:00N 47°39' W 003°18'2 4.8
2017-Sep-19 11:30N 47°39' W 003°22'2 4.9
2017-Sep-19 11:00N 47°39' W 003°25'1 0.1
2017-Sep-18 15:52N 47°39' W 003°27'0 1.1
2017-Sep-18 15:30N 47°39' W 003°27'3 5.2
2017-Sep-18 15:00N 47°40' W 003°30'3 5.8
2017-Sep-18 14:30N 47°41' W 003°34'3 6.0
2017-Sep-18 14:00N 47°43' W 003°38'48 1.0
2017-Sep-16 12:48N 48°02' W 004°45'2 5.7
2017-Sep-16 12:30N 48°03' W 004°46'4 7.7
2017-Sep-16 12:00N 48°06' W 004°42'3 6.2
2017-Sep-16 11:30N 48°07' W 004°37'3 6.2
2017-Sep-16 10:58N 48°07' W 004°33'2 4.8
2017-Sep-16 10:30N 48°07' W 004°29'3 5.6
2017-Sep-16 09:59N 48°08' W 004°25'3 5.8
2017-Sep-16 09:29N 48°08' W 004°21'2 3.9
2017-Sep-16 09:00N 48°06' W 004°20'  
Track history (hours):
 
Tides and Currents Weather Stations Pressure Air Temp Water Temp Dewpoint Dewpoint Depression Visibility Wind Speed Wind Dir Waves Ship Positions

Adelaide V

Last reported at 2017-Sep-19 13:33 UTC. Time now 2017-Sep-19 20:29 UTC.
Position N 47°39' W 003°12'.

Length 12 m.

Type: Sailing vessel. MMSI: 227127750.

Date/timePositionNaut miles runAvg speedWind from/ knotsBaromVisibWave heightAir tempDewpointWater temp
2017-Sep-19 13:33N 47°39' W 003°12'0 0.1
2017-Sep-19 13:30N 47°39' W 003°12'1 1.9
2017-Sep-19 13:00N 47°39' W 003°13'2 3.5
2017-Sep-19 12:30N 47°38' W 003°15'2 3.9
2017-Sep-19 12:00N 47°39' W 003°18'2 4.8
2017-Sep-19 11:30N 47°39' W 003°22'2 4.9
2017-Sep-19 11:00N 47°39' W 003°25'1 0.1
2017-Sep-18 15:52N 47°39' W 003°27'0 1.1
2017-Sep-18 15:30N 47°39' W 003°27'3 5.2
2017-Sep-18 15:00N 47°40' W 003°30'3 5.8
2017-Sep-18 14:30N 47°41' W 003°34'3 6.0
2017-Sep-18 14:00N 47°43' W 003°38'48 1.0
2017-Sep-16 12:48N 48°02' W 004°45'2 5.7
2017-Sep-16 12:30N 48°03' W 004°46'4 7.7
2017-Sep-16 12:00N 48°06' W 004°42'3 6.2
2017-Sep-16 11:30N 48°07' W 004°37'3 6.2
2017-Sep-16 10:58N 48°07' W 004°33'2 4.8
2017-Sep-16 10:30N 48°07' W 004°29'3 5.6
2017-Sep-16 09:59N 48°08' W 004°25'3 5.8
2017-Sep-16 09:29N 48°08' W 004°21'2 3.9
2017-Sep-16 09:00N 48°06' W 004°20'  

Dump ship's entire track history